createdAt,value
2018-07-01T00:01:03.832Z,1.70
2018-07-01T00:06:07.483Z,3.27
2018-07-01T00:11:10.990Z,2.50
2018-07-01T00:16:14.413Z,2.33
2018-07-01T00:21:18.072Z,2.27
2018-07-01T00:26:22.260Z,1.53
2018-07-01T00:31:25.783Z,1.67
2018-07-01T00:36:29.030Z,2.00
2018-07-01T00:41:32.359Z,2.10
2018-07-01T00:46:36.096Z,2.30
2018-07-01T00:51:39.718Z,2.60
2018-07-01T00:56:43.261Z,2.63
2018-07-01T01:01:46.515Z,3.07
2018-07-01T01:06:50.204Z,2.77
2018-07-01T01:13:08.302Z,2.50
2018-07-01T01:18:11.558Z,2.70
2018-07-01T01:23:14.798Z,2.60
2018-07-01T01:28:18.346Z,2.50
2018-07-01T01:33:22.230Z,2.67
2018-07-01T01:38:27.635Z,2.80
2018-07-01T01:44:38.830Z,2.90
2018-07-01T01:49:50.624Z,2.70
2018-07-01T01:55:01.359Z,2.67
2018-07-01T02:00:10.106Z,2.37
2018-07-01T02:05:18.621Z,2.10
2018-07-01T02:10:22.342Z,2.10
2018-07-01T02:15:30.977Z,2.80
2018-07-01T02:20:36.902Z,2.43
2018-07-01T02:25:41.757Z,2.43
2018-07-01T02:30:46.052Z,2.67
2018-07-01T02:35:49.394Z,2.50
2018-07-01T02:40:52.979Z,2.50
2018-07-01T02:45:57.303Z,3.30
2018-07-01T02:51:01.879Z,2.60
2018-07-01T02:56:06.703Z,2.60
2018-07-01T03:01:10.566Z,2.27
2018-07-01T03:06:14.227Z,2.40
2018-07-01T03:11:17.960Z,2.30
2018-07-01T03:16:21.712Z,2.17
2018-07-01T03:21:25.376Z,2.27
2018-07-01T03:26:29.560Z,2.50
2018-07-01T03:31:33.706Z,2.70
2018-07-01T03:36:37.105Z,2.57
2018-07-01T03:41:40.631Z,2.47
2018-07-01T03:46:45.055Z,2.77
2018-07-01T03:51:48.403Z,2.30
2018-07-01T03:56:51.788Z,2.60
2018-07-01T04:01:55.958Z,2.50
2018-07-01T04:06:59.485Z,2.10
2018-07-01T04:12:03.230Z,2.10
2018-07-01T04:17:06.852Z,3.23
2018-07-01T04:22:10.579Z,4.50
2018-07-01T04:27:14.258Z,3.37
2018-07-01T04:32:18.956Z,4.63
2018-07-01T04:37:22.529Z,3.87
2018-07-01T04:42:25.991Z,3.27
2018-07-01T04:47:29.279Z,3.70
2018-07-01T04:52:32.637Z,3.67
2018-07-01T04:57:36.134Z,2.93
2018-07-01T05:02:39.737Z,3.40
2018-07-01T05:07:43.618Z,3.33
2018-07-01T05:12:46.927Z,2.97
2018-07-01T05:17:50.390Z,1.83
2018-07-01T05:22:53.687Z,1.80
2018-07-01T05:27:56.992Z,1.80
2018-07-01T05:33:00.751Z,1.80
2018-07-01T05:38:05.130Z,1.70
2018-07-01T05:43:08.834Z,1.77
2018-07-01T05:48:14.001Z,1.37
2018-07-01T05:53:17.550Z,2.53
2018-07-01T05:58:20.843Z,1.40
2018-07-01T06:03:24.464Z,1.30
2018-07-01T06:08:27.926Z,1.60
2018-07-01T06:13:31.707Z,1.50
2018-07-01T06:18:35.525Z,1.40
2018-07-01T06:23:39.324Z,1.40
2018-07-01T06:28:43.198Z,1.63
2018-07-01T06:33:46.579Z,1.10
2018-07-01T06:38:50.054Z,1.30
2018-07-01T06:43:53.850Z,1.63
2018-07-01T06:48:58.318Z,1.10
2018-07-01T06:54:01.923Z,1.00
2018-07-01T06:59:05.459Z,1.10
2018-07-01T07:04:10.802Z,1.07
2018-07-01T07:09:14.397Z,1.00
2018-07-01T07:14:17.618Z,1.20
2018-07-01T07:19:20.921Z,1.10
2018-07-01T07:24:24.432Z,1.00
2018-07-01T07:29:27.679Z,0.83
2018-07-01T07:34:31.019Z,0.90
2018-07-01T07:39:34.249Z,1.00
2018-07-01T07:44:37.586Z,1.00
2018-07-01T07:49:41.122Z,0.90
2018-07-01T07:54:48.864Z,1.00
2018-07-01T07:59:53.046Z,0.90
2018-07-01T08:04:56.447Z,0.90
2018-07-01T08:10:00.136Z,0.80
2018-07-01T08:15:03.457Z,0.80
2018-07-01T08:20:06.859Z,0.80
2018-07-01T08:25:10.699Z,0.90
2018-07-01T08:30:14.129Z,0.83
2018-07-01T08:35:17.768Z,0.90
2018-07-01T08:40:21.243Z,0.80
2018-07-01T08:45:24.625Z,0.60
2018-07-01T08:50:28.138Z,0.80
2018-07-01T08:55:31.658Z,0.80
2018-07-01T09:00:38.194Z,0.73
2018-07-01T09:05:48.214Z,1.00
2018-07-01T09:10:57.175Z,0.60
2018-07-01T09:16:01.087Z,0.80
2018-07-01T09:21:05.466Z,0.70
2018-07-01T09:26:13.176Z,0.60
2018-07-01T09:31:17.148Z,0.80
2018-07-01T09:36:20.540Z,0.80
2018-07-01T09:41:23.907Z,0.90
2018-07-01T09:46:27.246Z,0.80
2018-07-01T09:51:30.894Z,0.83
2018-07-01T09:56:39.676Z,0.63
2018-07-01T10:01:43.502Z,0.80
2018-07-01T10:06:46.811Z,0.80
2018-07-01T10:11:50.233Z,0.80
2018-07-01T10:16:53.654Z,1.00
2018-07-01T10:21:57.050Z,0.70
2018-07-01T10:27:00.502Z,0.73
2018-07-01T10:32:03.910Z,0.73
2018-07-01T10:37:07.713Z,0.70
2018-07-01T10:42:11.142Z,0.60
2018-07-01T10:47:14.415Z,0.73
2018-07-01T10:52:17.754Z,0.80
2018-07-01T10:57:21.074Z,0.60
2018-07-01T11:02:24.912Z,0.67
2018-07-01T11:07:28.910Z,0.70
2018-07-01T11:12:32.388Z,0.60
2018-07-01T11:17:35.741Z,0.60
2018-07-01T11:22:39.055Z,0.70
2018-07-01T11:27:42.445Z,0.70
2018-07-01T11:32:45.845Z,0.80
2018-07-01T11:37:49.166Z,0.67
2018-07-01T11:42:52.537Z,0.60
2018-07-01T11:47:56.070Z,0.70
2018-07-01T11:52:59.466Z,1.00
2018-07-01T11:58:02.847Z,0.60
2018-07-01T12:03:06.278Z,0.90
2018-07-01T12:08:09.681Z,0.70
2018-07-01T12:13:13.494Z,0.60
2018-07-01T12:18:16.830Z,0.80
2018-07-01T12:23:20.272Z,0.60
2018-07-01T12:28:28.349Z,1.07
2018-07-01T12:33:35.384Z,1.57
2018-07-01T12:38:39.095Z,0.80
2018-07-01T12:43:42.549Z,0.70
2018-07-01T12:48:45.910Z,0.60
2018-07-01T12:53:49.301Z,1.20
2018-07-01T12:58:52.678Z,0.80
2018-07-01T13:03:56.316Z,0.70
2018-07-01T13:08:59.771Z,0.70
2018-07-01T13:14:03.328Z,0.70
2018-07-01T13:19:07.067Z,0.60
2018-07-01T13:24:10.769Z,0.73
2018-07-01T13:29:14.231Z,0.63
2018-07-01T13:34:18.094Z,0.70
2018-07-01T13:39:21.983Z,0.80
2018-07-01T13:44:29.383Z,0.70
2018-07-01T13:49:32.823Z,0.70
2018-07-01T13:54:36.685Z,0.60
2018-07-01T13:59:40.519Z,0.60
2018-07-01T14:04:45.672Z,0.70
2018-07-01T14:09:49.719Z,0.63
2018-07-01T14:14:53.309Z,0.70
2018-07-01T14:19:56.841Z,0.60
2018-07-01T14:25:00.516Z,0.70
2018-07-01T14:30:04.579Z,1.00
2018-07-01T14:35:08.247Z,0.70
2018-07-01T14:40:12.434Z,0.70
2018-07-01T14:45:16.069Z,0.57
2018-07-01T14:50:19.620Z,0.50
2018-07-01T14:55:23.259Z,0.90
2018-07-01T15:00:26.809Z,0.90
2018-07-01T15:05:30.955Z,0.90
2018-07-01T15:10:35.082Z,0.80
2018-07-01T15:15:38.707Z,0.70
2018-07-01T15:20:42.307Z,1.00
2018-07-01T15:26:48.907Z,0.60
2018-07-01T15:31:52.558Z,0.80
2018-07-01T15:36:56.187Z,0.73
2018-07-01T15:42:05.197Z,0.70
2018-07-01T15:47:09.171Z,0.90
2018-07-01T15:52:13.612Z,0.67
2018-07-01T15:57:18.641Z,0.87
2018-07-01T16:02:23.146Z,0.80
2018-07-01T16:07:27.166Z,0.90
2018-07-01T16:12:31.182Z,1.90
2018-07-01T16:17:34.846Z,1.60
2018-07-01T16:22:38.533Z,1.07
2018-07-01T16:29:54.157Z,1.07
2018-07-01T16:35:00.073Z,1.03
2018-07-01T16:40:03.790Z,0.80
2018-07-01T16:45:07.640Z,1.33
2018-07-01T16:50:11.101Z,0.90
2018-07-01T16:55:14.641Z,0.80
2018-07-01T17:00:18.832Z,0.87
2018-07-01T17:05:29.946Z,0.80
2018-07-01T17:10:41.456Z,0.67
2018-07-01T17:15:45.464Z,0.93
2018-07-01T17:20:49.274Z,0.90
2018-07-01T17:25:54.051Z,1.10
2018-07-01T17:31:02.877Z,0.97
2018-07-01T17:36:07.021Z,0.93
2018-07-01T17:41:10.788Z,0.90
2018-07-01T17:46:14.497Z,0.90
2018-07-01T17:51:18.095Z,1.20
2018-07-01T17:56:21.862Z,0.77
2018-07-01T18:01:25.237Z,1.20
2018-07-01T18:06:28.525Z,0.70
2018-07-01T18:11:31.947Z,0.90
2018-07-01T18:16:35.740Z,1.00
2018-07-01T18:21:40.298Z,1.30
2018-07-01T18:26:43.209Z,1.37
2018-07-01T18:31:47.564Z,1.13
2018-07-01T18:36:50.992Z,1.20
2018-07-01T18:41:54.615Z,1.13
2018-07-01T18:46:58.074Z,0.90
2018-07-01T18:52:01.510Z,1.00
2018-07-01T18:57:05.449Z,1.40
2018-07-01T19:02:09.257Z,1.10
2018-07-01T19:07:12.665Z,0.90
2018-07-01T19:12:16.138Z,1.00
2018-07-01T19:17:19.977Z,1.00
2018-07-01T19:22:23.317Z,0.90
2018-07-01T19:27:29.826Z,1.10
2018-07-01T19:32:34.283Z,1.17
2018-07-01T19:37:38.045Z,1.00
2018-07-01T19:42:41.938Z,1.10
2018-07-01T19:47:45.544Z,1.17
2018-07-01T19:52:49.158Z,1.67
2018-07-01T19:57:52.646Z,2.60
2018-07-01T20:02:56.788Z,2.00
2018-07-01T20:08:01.106Z,1.80
2018-07-01T20:13:04.893Z,1.77
2018-07-01T20:18:08.613Z,1.80
2018-07-01T20:23:12.230Z,1.60
2018-07-01T20:28:15.852Z,1.70
2018-07-01T20:33:19.848Z,1.77
2018-07-01T20:38:23.211Z,1.63
2018-07-01T20:43:26.573Z,1.80
2018-07-01T20:48:29.970Z,1.67
2018-07-01T20:53:33.884Z,1.97
2018-07-01T20:58:37.279Z,1.50
2018-07-01T21:03:41.301Z,1.60
2018-07-01T21:08:44.695Z,1.77
2018-07-01T21:13:48.066Z,1.80
2018-07-01T21:18:51.726Z,1.37
2018-07-01T21:23:55.364Z,1.90
2018-07-01T21:28:58.795Z,1.53
2018-07-01T21:34:02.758Z,1.80
2018-07-01T21:39:08.422Z,1.87
2018-07-01T21:44:11.893Z,1.63
2018-07-01T21:49:15.568Z,1.57
2018-07-01T21:54:18.913Z,2.10
2018-07-01T21:59:22.518Z,1.87
2018-07-01T22:04:26.598Z,2.33
2018-07-01T22:09:30.675Z,2.30
2018-07-01T22:14:44.546Z,1.67
2018-07-01T22:19:48.249Z,1.90
2018-07-01T22:24:51.789Z,1.60
2018-07-01T22:29:55.371Z,1.63
2018-07-01T22:34:59.243Z,1.57
2018-07-01T22:40:03.103Z,1.37
2018-07-01T22:45:06.817Z,1.30
2018-07-01T22:50:10.642Z,1.90
2018-07-01T22:55:13.915Z,1.33
2018-07-01T23:00:17.165Z,1.40
2018-07-01T23:05:21.490Z,1.63
2018-07-01T23:10:25.866Z,1.70
2018-07-01T23:15:29.542Z,2.10
2018-07-01T23:20:33.934Z,1.93
2018-07-01T23:25:37.677Z,1.30
2018-07-01T23:30:43.238Z,2.17
2018-07-01T23:35:47.045Z,1.77
2018-07-01T23:40:50.588Z,2.27
2018-07-01T23:45:54.406Z,1.53
2018-07-01T23:50:59.298Z,1.67
2018-07-01T23:56:04.008Z,2.30
